الصفحة الرئيسية
METAR-TAF:

METAR-TAF

مطار :

Río Hato, بنما

دائرة عرض: 08-22-33N, خط طول: 080-07-40W, ارتفاع: 32 متر

مراقبة الطقس الحالي

تاريخ ووقت الإصدار 20 دقيقة قبل الساعة 20:00UTC
ريح 17 عقدة من الشمال
درجة الحرارة 31°درجة مئوية
الرطوبة 52%
ضغط 1009 hPa
غيوم قليلة على ارتفاع 2000 قدم

METAR: MPSM 172000Z 35017KT(E) FEW020 31/20 Q1009

زمن: 15:20 (20:20 UTC)

توقعات

تاريخ ووقت الإصدار 3ساعات و 20 دقيقة قبل الساعة 17:00UTC
التوقعات صالحة من17 الساعة 18 UTC إلى 18 الساعة 24 UTC
ريح 12 عقدة من الشمال/الشمال الغربي
الرؤية 10 كم أو أكثر
غيوم قليلة على ارتفاع 2000 قدم
مؤقت
من 18 الساعة 02 UTC إلى 18 الساعة 06 UTC
ريح 5 عقدة من الشمال/الشمال الشرقي

TAF: MPSM 171700Z 1718/1824 34012KT 9999 FEW020 TEMPO 1802/1806 02005KT

أرصاد الطقس والتوقعات من أكثر من 4000 مطار (تقارير الطقس للمطار METAR والتنبؤ بالطقس بالمطارTAF).

المحطات المتاحة هي النقط الصفراء والحمراء على الخريطة.

حرك المؤشر فوق النقطة لمعرفة اسم المحطة.

ثم انقر لمعرفة أرصاد وتوقعات الطقس.

لتغيير الخارطة: اضغط على الأزرار الخضراء مع رمز الصليب الأسود للتكبير. على الزر الأخضر مع شرطة للتصغير، أو على الأسهم الخضراء للخرائط المجاورة.


METAR-TAF: